createdAt,value
2019-03-25T00:00:52.975Z,67.20
2019-03-25T00:03:21.339Z,67.60
2019-03-25T00:05:49.694Z,67.70
2019-03-25T00:08:18.215Z,67.50
2019-03-25T00:10:46.611Z,67.90
2019-03-25T00:13:14.917Z,67.60
2019-03-25T00:15:43.310Z,67.80
2019-03-25T00:18:11.591Z,68.00
2019-03-25T00:20:39.844Z,67.10
2019-03-25T00:23:08.366Z,66.80
2019-03-25T00:25:36.745Z,66.80
2019-03-25T00:28:05.220Z,66.90
2019-03-25T00:30:33.742Z,67.40
2019-03-25T00:33:02.006Z,67.80
2019-03-25T00:35:30.363Z,67.90
2019-03-25T00:37:58.709Z,67.80
2019-03-25T00:40:26.956Z,68.00
2019-03-25T00:42:55.314Z,68.40
2019-03-25T00:45:23.611Z,68.10
2019-03-25T00:47:52.345Z,67.80
2019-03-25T00:50:20.872Z,67.90
2019-03-25T00:52:49.254Z,67.90
2019-03-25T00:55:17.519Z,68.00
2019-03-25T00:57:45.983Z,68.50
2019-03-25T01:00:14.901Z,68.80
2019-03-25T01:02:43.283Z,68.30
2019-03-25T01:05:12.055Z,68.00
2019-03-25T01:07:41.414Z,68.20
2019-03-25T01:10:10.245Z,67.40
2019-03-25T01:12:38.566Z,67.00
2019-03-25T01:15:07.248Z,67.40
2019-03-25T01:17:36.507Z,67.20
2019-03-25T01:20:05.413Z,67.20
2019-03-25T01:22:33.726Z,67.10
2019-03-25T01:25:02.749Z,67.40
2019-03-25T01:27:31.474Z,68.00
2019-03-25T01:29:59.855Z,67.80
2019-03-25T01:32:28.097Z,69.00
2019-03-25T01:34:56.553Z,68.10
2019-03-25T01:37:24.851Z,68.60
2019-03-25T01:39:53.547Z,69.40
2019-03-25T01:42:21.851Z,68.70
2019-03-25T01:44:50.223Z,68.60
2019-03-25T01:47:18.486Z,69.00
2019-03-25T01:49:47.514Z,69.70
2019-03-25T01:52:15.826Z,69.00
2019-03-25T01:54:44.089Z,68.70
2019-03-25T01:57:12.539Z,69.00
2019-03-25T01:59:40.906Z,69.70
2019-03-25T02:02:09.997Z,69.70
2019-03-25T02:04:38.297Z,69.40
2019-03-25T02:07:06.629Z,69.60
2019-03-25T02:09:34.897Z,69.50
2019-03-25T02:12:03.267Z,69.60
2019-03-25T02:14:31.533Z,70.00
2019-03-25T02:16:59.793Z,69.80
2019-03-25T02:19:28.152Z,69.70
2019-03-25T02:21:56.488Z,69.40
2019-03-25T02:24:24.855Z,69.20
2019-03-25T02:26:53.312Z,70.10
2019-03-25T02:29:21.526Z,69.80
2019-03-25T02:31:49.831Z,69.60
2019-03-25T02:34:18.252Z,69.50
2019-03-25T02:36:46.558Z,70.40
2019-03-25T02:39:14.927Z,69.70
2019-03-25T02:41:43.275Z,69.60
2019-03-25T02:44:11.370Z,70.40
2019-03-25T02:46:39.596Z,70.00
2019-03-25T02:49:07.993Z,69.60
2019-03-25T02:51:36.317Z,69.90
2019-03-25T02:54:04.636Z,70.00
2019-03-25T02:56:33.143Z,69.50
2019-03-25T02:59:01.358Z,70.20
2019-03-25T03:01:29.635Z,70.70
2019-03-25T03:03:57.909Z,71.20
2019-03-25T03:06:27.168Z,71.00
2019-03-25T03:08:55.465Z,70.30
2019-03-25T03:11:23.984Z,70.30
2019-03-25T03:13:52.218Z,70.10
2019-03-25T03:16:20.553Z,70.20
2019-03-25T03:18:49.281Z,71.10
2019-03-25T03:21:17.466Z,71.30
2019-03-25T03:23:45.815Z,71.60
2019-03-25T03:26:14.287Z,72.00
2019-03-25T03:28:42.525Z,71.70
2019-03-25T03:31:10.803Z,72.00
2019-03-25T03:33:39.119Z,72.10
2019-03-25T03:36:07.436Z,72.20
2019-03-25T03:38:35.936Z,71.90
2019-03-25T03:41:04.440Z,71.70
2019-03-25T03:43:32.975Z,71.70
2019-03-25T03:46:01.337Z,71.90
2019-03-25T03:48:29.811Z,71.70
2019-03-25T03:50:58.174Z,71.50
2019-03-25T03:53:26.717Z,71.50
2019-03-25T03:55:55.333Z,72.00
2019-03-25T03:58:25.239Z,72.20
2019-03-25T04:00:53.608Z,71.60
2019-03-25T04:03:21.930Z,71.50
2019-03-25T04:05:50.174Z,71.40
2019-03-25T04:08:18.427Z,71.40
2019-03-25T04:10:46.829Z,72.40
2019-03-25T04:13:15.071Z,71.90
2019-03-25T04:15:43.433Z,72.10
2019-03-25T04:18:11.968Z,72.10
2019-03-25T04:20:40.290Z,71.70
2019-03-25T04:23:08.660Z,72.20
2019-03-25T04:25:37.359Z,71.90
2019-03-25T04:28:05.687Z,71.70
2019-03-25T04:30:34.024Z,71.80
2019-03-25T04:33:02.231Z,71.80
2019-03-25T04:35:30.488Z,71.80
2019-03-25T04:37:59.027Z,72.50
2019-03-25T04:40:27.496Z,72.10
2019-03-25T04:42:55.855Z,72.00
2019-03-25T04:45:24.204Z,71.80
2019-03-25T04:47:52.593Z,71.60
2019-03-25T04:50:20.854Z,71.40
2019-03-25T04:52:49.230Z,71.60
2019-03-25T04:55:19.550Z,71.60
2019-03-25T04:57:47.790Z,71.70
2019-03-25T05:00:30.720Z,72.10
2019-03-25T05:02:59.036Z,72.50
2019-03-25T05:05:27.426Z,72.80
2019-03-25T05:07:55.880Z,72.90
2019-03-25T05:10:24.142Z,73.20
2019-03-25T05:12:52.454Z,73.20
2019-03-25T05:15:20.779Z,73.20
2019-03-25T05:17:48.998Z,73.20
2019-03-25T05:20:17.412Z,73.50
2019-03-25T05:22:45.946Z,73.60
2019-03-25T05:25:14.280Z,73.80
2019-03-25T05:27:42.636Z,73.70
2019-03-25T05:30:11.133Z,73.80
2019-03-25T05:32:39.407Z,73.80
2019-03-25T05:35:07.867Z,73.60
2019-03-25T05:37:36.145Z,73.40
2019-03-25T05:40:04.771Z,73.00
2019-03-25T05:42:33.202Z,72.90
2019-03-25T05:45:01.605Z,72.90
2019-03-25T05:47:29.851Z,72.80
2019-03-25T05:49:58.226Z,72.80
2019-03-25T05:52:26.667Z,72.40
2019-03-25T05:54:54.947Z,72.10
2019-03-25T05:57:23.241Z,72.10
2019-03-25T05:59:51.753Z,72.20
2019-03-25T06:02:20.011Z,72.20
2019-03-25T06:04:48.389Z,72.30
2019-03-25T06:07:16.806Z,72.10
2019-03-25T06:09:45.132Z,71.80
2019-03-25T06:12:13.408Z,71.80
2019-03-25T06:14:41.855Z,71.70
2019-03-25T06:17:10.193Z,71.80
2019-03-25T06:19:38.456Z,72.10
2019-03-25T06:22:06.715Z,72.50
2019-03-25T06:24:35.249Z,73.10
2019-03-25T06:27:13.590Z,73.70
2019-03-25T06:29:33.809Z,74.00
2019-03-25T06:32:02.168Z,73.70
2019-03-25T06:34:31.237Z,73.40
2019-03-25T06:36:59.690Z,73.20
2019-03-25T06:39:28.003Z,73.60
2019-03-25T06:41:56.654Z,73.30
2019-03-25T06:44:25.285Z,73.00
2019-03-25T06:46:53.706Z,72.80
2019-03-25T06:49:22.015Z,72.50
2019-03-25T06:51:50.557Z,72.30
2019-03-25T06:54:18.905Z,72.80
2019-03-25T06:56:47.266Z,72.70
2019-03-25T06:59:15.607Z,72.50
2019-03-25T07:01:43.946Z,73.00
2019-03-25T07:04:12.246Z,72.30
2019-03-25T07:06:40.598Z,72.20
2019-03-25T07:09:08.843Z,71.80
2019-03-25T07:11:37.500Z,72.00
2019-03-25T07:14:05.807Z,72.00
2019-03-25T07:16:34.243Z,71.90
2019-03-25T07:19:02.555Z,71.40
2019-03-25T07:21:30.942Z,71.80
2019-03-25T07:23:59.224Z,72.20
2019-03-25T07:26:28.462Z,71.30
2019-03-25T07:28:57.062Z,71.60
2019-03-25T07:31:25.339Z,71.40
2019-03-25T07:33:53.573Z,71.50
2019-03-25T07:36:21.970Z,71.60
2019-03-25T07:38:50.252Z,71.50
2019-03-25T07:41:18.529Z,72.90
2019-03-25T07:43:47.762Z,73.10
2019-03-25T07:46:16.113Z,73.30
2019-03-25T07:48:44.336Z,72.80
2019-03-25T07:51:13.872Z,72.40
2019-03-25T07:53:42.136Z,72.50
2019-03-25T07:56:10.447Z,73.10
2019-03-25T07:58:38.781Z,74.20
2019-03-25T08:01:07.119Z,75.00
2019-03-25T08:03:35.526Z,74.80
2019-03-25T08:06:04.074Z,75.30
2019-03-25T08:08:32.393Z,77.50
2019-03-25T08:11:00.725Z,76.50
2019-03-25T08:13:29.037Z,77.60
2019-03-25T08:15:57.345Z,77.50
2019-03-25T08:18:25.653Z,77.90
2019-03-25T08:20:53.953Z,78.30
2019-03-25T08:23:22.217Z,77.50
2019-03-25T08:25:50.461Z,77.10
2019-03-25T08:28:18.889Z,77.40
2019-03-25T08:30:47.196Z,77.60
2019-03-25T08:33:15.415Z,77.20
2019-03-25T08:35:43.792Z,76.90
2019-03-25T08:38:12.035Z,76.60
2019-03-25T08:40:40.274Z,76.10
2019-03-25T08:43:08.548Z,75.70
2019-03-25T08:45:36.881Z,74.80
2019-03-25T08:48:06.130Z,73.70
2019-03-25T08:50:34.481Z,73.20
2019-03-25T08:53:02.865Z,73.40
2019-03-25T08:55:31.147Z,74.10
2019-03-25T08:58:11.273Z,74.20
2019-03-25T09:00:30.130Z,74.50
2019-03-25T09:02:59.393Z,75.60
2019-03-25T09:05:27.834Z,75.50
2019-03-25T09:07:56.118Z,75.70
2019-03-25T09:10:25.677Z,74.80
2019-03-25T09:12:57.922Z,73.30
2019-03-25T09:15:26.314Z,73.30
2019-03-25T09:17:54.590Z,72.60
2019-03-25T09:20:22.906Z,72.30
2019-03-25T09:22:51.208Z,71.20
2019-03-25T09:25:19.463Z,70.90
2019-03-25T09:28:30.875Z,70.60
2019-03-25T09:31:09.827Z,70.10
2019-03-25T09:33:38.150Z,69.80
2019-03-25T09:36:06.728Z,68.20
2019-03-25T09:38:35.133Z,68.50
2019-03-25T09:41:03.506Z,68.10
2019-03-25T09:43:31.757Z,67.20
2019-03-25T09:46:00.312Z,66.80
2019-03-25T09:48:29.087Z,66.60
2019-03-25T09:50:57.388Z,67.00
2019-03-25T09:53:25.737Z,66.60
2019-03-25T09:55:54.187Z,65.30
2019-03-25T09:58:22.588Z,62.30
2019-03-25T10:00:52.121Z,62.30
2019-03-25T10:03:22.051Z,64.80
2019-03-25T10:05:50.776Z,67.70
2019-03-25T10:08:19.292Z,72.00
2019-03-25T10:10:47.679Z,74.40
2019-03-25T10:13:16.030Z,74.10
2019-03-25T10:15:44.405Z,74.30
2019-03-25T10:18:12.973Z,73.90
2019-03-25T10:20:41.471Z,71.70
2019-03-25T10:23:09.767Z,69.10
2019-03-25T10:25:38.291Z,68.50
2019-03-25T10:28:06.813Z,66.90
2019-03-25T10:30:35.099Z,65.00
2019-03-25T10:33:03.523Z,62.60
2019-03-25T10:35:32.134Z,61.70
2019-03-25T10:38:00.378Z,59.90
2019-03-25T10:40:28.964Z,58.50
2019-03-25T10:42:57.191Z,57.80
2019-03-25T10:45:25.423Z,58.30
2019-03-25T10:47:53.877Z,57.60
2019-03-25T10:50:22.179Z,57.60
2019-03-25T10:52:50.436Z,56.90
2019-03-25T10:55:18.696Z,58.00
2019-03-25T10:57:46.978Z,57.00
2019-03-25T11:00:15.949Z,56.90
2019-03-25T11:02:44.635Z,56.90
2019-03-25T11:05:13.794Z,56.20
2019-03-25T11:10:11.083Z,52.80
2019-03-25T11:12:39.487Z,52.30
2019-03-25T11:15:09.495Z,51.90
2019-03-25T11:17:37.723Z,51.00
2019-03-25T11:20:06.847Z,51.10
2019-03-25T11:22:35.197Z,51.30
2019-03-25T11:25:03.883Z,48.00
2019-03-25T11:27:33.181Z,44.60
2019-03-25T11:30:01.593Z,43.40
2019-03-25T11:32:31.094Z,44.20
2019-03-25T11:34:59.464Z,46.00
2019-03-25T11:37:27.895Z,47.70
2019-03-25T11:39:57.099Z,48.90
2019-03-25T11:42:25.459Z,49.30
2019-03-25T11:44:53.734Z,50.20
2019-03-25T11:47:24.478Z,50.80
2019-03-25T11:49:52.915Z,51.00
2019-03-25T11:52:21.282Z,50.80
2019-03-25T11:54:49.552Z,50.90
2019-03-25T11:57:17.816Z,50.80
2019-03-25T11:59:46.174Z,51.00
2019-03-25T12:02:17.801Z,51.60
2019-03-25T12:04:44.780Z,51.60
2019-03-25T12:07:13.172Z,51.50
2019-03-25T12:09:41.712Z,52.00
2019-03-25T12:12:10.015Z,53.20
2019-03-25T12:14:38.324Z,53.60
2019-03-25T12:17:06.692Z,53.90
2019-03-25T12:19:34.958Z,54.60
2019-03-25T12:22:03.277Z,55.70
2019-03-25T12:24:31.776Z,57.10
2019-03-25T12:27:00.190Z,58.00
2019-03-25T12:29:30.518Z,58.50
2019-03-25T12:31:58.901Z,59.80
2019-03-25T12:34:27.273Z,56.50
2019-03-25T12:36:55.603Z,55.00
2019-03-25T12:39:24.058Z,54.80
2019-03-25T12:41:52.357Z,54.70
2019-03-25T12:44:20.598Z,55.90
2019-03-25T12:46:49.075Z,57.50
2019-03-25T12:49:18.070Z,58.10
2019-03-25T12:51:48.498Z,58.70
2019-03-25T12:54:16.815Z,59.00
2019-03-25T12:56:45.148Z,59.40
2019-03-25T12:59:13.430Z,60.40
2019-03-25T13:01:52.379Z,64.50
2019-03-25T13:04:12.996Z,67.60
2019-03-25T13:06:41.478Z,68.20
2019-03-25T13:09:10.235Z,64.90
2019-03-25T13:11:38.573Z,60.80
2019-03-25T13:14:06.886Z,59.10
2019-03-25T13:16:35.172Z,60.30
2019-03-25T13:19:03.470Z,59.70
2019-03-25T13:21:31.873Z,57.60
2019-03-25T13:24:00.263Z,55.20
2019-03-25T13:26:28.660Z,55.20
2019-03-25T13:29:02.093Z,57.60
2019-03-25T13:31:27.137Z,58.10
2019-03-25T13:33:55.422Z,58.20
2019-03-25T13:36:23.704Z,58.40
2019-03-25T13:38:52.091Z,59.20
2019-03-25T13:41:20.457Z,61.50
2019-03-25T13:43:48.831Z,64.00
2019-03-25T13:46:17.061Z,66.10
2019-03-25T13:48:45.661Z,69.10
2019-03-25T13:51:15.239Z,72.20
2019-03-25T13:53:43.638Z,71.50
2019-03-25T13:56:11.967Z,73.00
2019-03-25T13:58:40.428Z,71.30
2019-03-25T14:01:09.844Z,71.70
2019-03-25T14:03:38.111Z,72.00
2019-03-25T14:06:06.560Z,68.70
2019-03-25T14:08:34.852Z,69.80
2019-03-25T14:11:03.175Z,68.30
2019-03-25T14:13:31.513Z,66.10
2019-03-25T14:15:59.773Z,62.00
2019-03-25T14:18:28.626Z,62.20
2019-03-25T14:20:57.101Z,64.00
2019-03-25T14:23:25.479Z,65.20
2019-03-25T14:25:53.826Z,66.20
2019-03-25T14:28:22.219Z,66.60
2019-03-25T14:30:51.369Z,67.40
2019-03-25T14:33:19.677Z,67.50
2019-03-25T14:35:48.129Z,67.10
2019-03-25T14:38:16.777Z,67.80
2019-03-25T14:40:45.062Z,67.50
2019-03-25T14:43:13.489Z,67.00
2019-03-25T14:45:41.781Z,67.20
2019-03-25T14:48:13.340Z,65.80
2019-03-25T14:50:41.848Z,65.70
2019-03-25T14:53:10.304Z,64.80
2019-03-25T14:55:38.680Z,65.10
2019-03-25T14:58:07.145Z,65.90
2019-03-25T15:00:35.551Z,65.60
2019-03-25T15:03:04.112Z,63.10
2019-03-25T15:05:32.471Z,61.70
2019-03-25T15:08:00.742Z,61.80
2019-03-25T15:10:29.027Z,61.30
2019-03-25T15:12:57.458Z,61.70
2019-03-25T15:15:25.788Z,62.50
2019-03-25T15:17:54.110Z,63.00
2019-03-25T15:20:22.414Z,62.90
2019-03-25T15:22:50.739Z,62.30
2019-03-25T15:25:18.971Z,63.80
2019-03-25T15:27:47.291Z,64.60
2019-03-25T15:30:16.789Z,64.50
2019-03-25T15:32:45.105Z,63.90
2019-03-25T15:35:13.492Z,64.40
2019-03-25T15:37:41.821Z,64.80
2019-03-25T15:40:11.361Z,65.50
2019-03-25T15:42:39.827Z,66.40
2019-03-25T15:45:08.875Z,67.10
2019-03-25T15:47:37.294Z,67.30
2019-03-25T15:50:06.402Z,66.90
2019-03-25T15:52:35.660Z,67.00
2019-03-25T15:55:04.058Z,67.00
2019-03-25T15:57:32.433Z,61.90
2019-03-25T16:00:00.792Z,58.70
2019-03-25T16:02:29.242Z,58.00
2019-03-25T16:04:57.554Z,57.60
2019-03-25T16:07:29.211Z,57.90
2019-03-25T16:09:57.559Z,58.10
2019-03-25T16:12:25.844Z,58.40
2019-03-25T16:14:54.137Z,58.30
2019-03-25T16:17:22.495Z,58.40
2019-03-25T16:19:50.814Z,58.90
2019-03-25T16:22:19.144Z,59.30
2019-03-25T16:24:47.521Z,59.20
2019-03-25T16:27:15.776Z,60.20
2019-03-25T16:29:44.028Z,62.60
2019-03-25T16:32:12.362Z,64.20
2019-03-25T16:34:42.466Z,65.60
2019-03-25T16:37:10.847Z,68.20
2019-03-25T16:39:39.159Z,68.50
2019-03-25T16:42:07.496Z,69.30
2019-03-25T16:44:35.933Z,70.10
2019-03-25T16:47:06.599Z,71.10
2019-03-25T16:49:34.920Z,70.80
2019-03-25T16:52:03.330Z,70.50
2019-03-25T16:54:31.854Z,70.70
2019-03-25T16:57:00.218Z,70.50
2019-03-25T16:59:28.592Z,70.90
2019-03-25T17:01:56.899Z,69.20
2019-03-25T17:04:25.226Z,69.20
2019-03-25T17:06:53.558Z,68.90
2019-03-25T17:09:21.906Z,68.50
2019-03-25T17:11:50.243Z,68.00
2019-03-25T17:14:19.614Z,68.00
2019-03-25T17:16:48.053Z,68.30
2019-03-25T17:19:16.440Z,68.70
2019-03-25T17:21:44.782Z,68.90
2019-03-25T17:24:14.243Z,68.70
2019-03-25T17:27:09.250Z,68.90
2019-03-25T17:29:38.120Z,70.60
2019-03-25T17:32:06.632Z,70.40
2019-03-25T17:34:36.396Z,71.30
2019-03-25T17:37:04.796Z,71.40
2019-03-25T17:39:33.365Z,71.70
2019-03-25T17:42:01.925Z,72.80
2019-03-25T17:44:30.367Z,74.60
2019-03-25T17:46:58.720Z,76.10
2019-03-25T17:49:34.071Z,77.80
2019-03-25T17:52:02.824Z,80.10
2019-03-25T17:54:31.168Z,81.70
2019-03-25T17:56:59.510Z,82.10
2019-03-25T17:59:27.777Z,82.80
2019-03-25T18:01:56.137Z,83.40
2019-03-25T18:04:24.840Z,84.50
2019-03-25T18:06:53.124Z,86.00
2019-03-25T18:09:27.327Z,87.50
2019-03-25T18:11:55.808Z,88.80
2019-03-25T18:14:24.088Z,88.40
2019-03-25T18:16:52.564Z,89.20
2019-03-25T18:19:21.138Z,90.20
2019-03-25T18:21:49.605Z,90.00
2019-03-25T18:24:18.020Z,90.60
2019-03-25T18:26:46.473Z,91.20
2019-03-25T18:29:17.037Z,91.60
2019-03-25T18:31:45.461Z,91.50
2019-03-25T18:34:13.765Z,91.90
2019-03-25T18:36:42.068Z,91.70
2019-03-25T18:39:11.936Z,91.70
2019-03-25T18:41:40.611Z,91.00
2019-03-25T18:44:09.357Z,91.70
2019-03-25T18:46:40.019Z,91.80
2019-03-25T18:49:08.685Z,92.00
2019-03-25T18:51:37.118Z,92.10
2019-03-25T18:54:05.728Z,92.20
2019-03-25T18:56:34.269Z,92.20
2019-03-25T18:59:02.751Z,92.10
2019-03-25T19:01:35.155Z,92.20
2019-03-25T19:04:03.601Z,92.40
2019-03-25T19:06:32.221Z,92.60
2019-03-25T19:09:00.699Z,92.80
2019-03-25T19:11:31.472Z,92.50
2019-03-25T19:14:04.521Z,92.50
2019-03-25T19:16:33.259Z,92.30
2019-03-25T19:19:01.477Z,92.20
2019-03-25T19:21:30.858Z,92.10
2019-03-25T19:23:59.463Z,92.30
2019-03-25T19:26:27.802Z,92.40
2019-03-25T19:28:56.301Z,92.70
2019-03-25T19:31:24.637Z,93.00
2019-03-25T19:33:52.914Z,92.70
2019-03-25T19:36:21.292Z,93.10
2019-03-25T19:38:49.794Z,92.80
2019-03-25T19:41:27.128Z,92.50
2019-03-25T19:43:48.690Z,92.60
2019-03-25T19:46:17.136Z,92.40
2019-03-25T19:48:45.534Z,92.20
2019-03-25T19:51:13.942Z,92.10
2019-03-25T19:53:42.378Z,92.50
2019-03-25T19:56:14.644Z,92.30
2019-03-25T19:58:43.148Z,92.50
2019-03-25T20:01:45.860Z,92.40
2019-03-25T20:04:14.546Z,92.70
2019-03-25T20:06:48.356Z,92.70
2019-03-25T20:09:19.806Z,92.60
2019-03-25T20:11:48.559Z,92.50
2019-03-25T20:14:16.962Z,92.00
2019-03-25T20:16:45.412Z,92.00
2019-03-25T20:19:13.809Z,91.70
2019-03-25T20:21:42.160Z,91.60
2019-03-25T20:24:10.595Z,91.50
2019-03-25T20:26:39.408Z,91.50
2019-03-25T20:29:07.766Z,91.20
2019-03-25T20:31:36.111Z,91.20
2019-03-25T20:34:10.949Z,91.30
2019-03-25T20:36:34.819Z,91.40
2019-03-25T20:39:06.927Z,91.50
2019-03-25T20:41:36.122Z,91.40
2019-03-25T20:44:04.634Z,91.50
2019-03-25T20:46:33.200Z,91.20
2019-03-25T20:49:01.961Z,91.60
2019-03-25T20:51:30.390Z,91.40
2019-03-25T20:53:58.890Z,91.40
2019-03-25T20:56:30.636Z,91.50
2019-03-25T20:58:59.222Z,91.80
2019-03-25T21:01:27.680Z,91.60
2019-03-25T21:03:56.136Z,91.90
2019-03-25T21:06:25.053Z,91.50
2019-03-25T21:08:53.735Z,91.20
2019-03-25T21:11:22.310Z,91.20
2019-03-25T21:13:50.688Z,91.30
2019-03-25T21:16:19.098Z,91.20
2019-03-25T21:18:47.354Z,91.30
2019-03-25T21:21:15.848Z,91.40
2019-03-25T21:23:44.850Z,91.50
2019-03-25T21:26:13.179Z,91.60
2019-03-25T21:28:41.825Z,91.80
2019-03-25T21:31:10.197Z,91.90
2019-03-25T21:33:38.750Z,91.90
2019-03-25T21:36:07.283Z,92.20
2019-03-25T21:38:35.754Z,92.30
2019-03-25T21:41:04.311Z,92.30
2019-03-25T21:43:32.853Z,92.10
2019-03-25T21:46:01.406Z,92.30
2019-03-25T21:48:29.989Z,92.30
2019-03-25T21:50:58.397Z,92.60
2019-03-25T21:53:26.867Z,92.60
2019-03-25T21:55:55.293Z,92.40
2019-03-25T21:58:23.831Z,92.30
2019-03-25T22:00:52.811Z,92.30
2019-03-25T22:03:21.347Z,92.50
2019-03-25T22:05:49.911Z,92.60
2019-03-25T22:08:18.236Z,92.40
2019-03-25T22:10:46.896Z,92.50
2019-03-25T22:13:16.337Z,92.00
2019-03-25T22:15:44.899Z,92.00
2019-03-25T22:18:13.426Z,92.00
2019-03-25T22:20:41.792Z,92.20
2019-03-25T22:23:10.184Z,92.10
2019-03-25T22:25:38.589Z,92.40
2019-03-25T22:28:07.080Z,91.90
2019-03-25T22:30:35.362Z,91.90
2019-03-25T22:33:03.675Z,91.90
2019-03-25T22:35:32.132Z,92.10
2019-03-25T22:38:00.404Z,92.10
2019-03-25T22:40:29.710Z,92.00
2019-03-25T22:42:58.315Z,91.90
2019-03-25T22:45:28.748Z,91.90
2019-03-25T22:47:56.996Z,92.20
2019-03-25T22:50:29.885Z,91.60
2019-03-25T22:52:58.210Z,91.70
2019-03-25T22:55:26.505Z,91.70
2019-03-25T22:57:57.922Z,91.90
2019-03-25T23:00:30.199Z,91.90
2019-03-25T23:03:00.230Z,92.10
2019-03-25T23:05:28.555Z,91.90
2019-03-25T23:07:56.893Z,91.70
2019-03-25T23:10:25.308Z,91.60
2019-03-25T23:12:53.513Z,91.60
2019-03-25T23:15:21.774Z,91.50
2019-03-25T23:17:50.188Z,91.50
2019-03-25T23:20:18.478Z,91.70
2019-03-25T23:22:46.810Z,91.90
2019-03-25T23:25:15.091Z,91.70
2019-03-25T23:27:44.360Z,91.60
2019-03-25T23:30:13.257Z,91.80
2019-03-25T23:32:41.708Z,91.90
2019-03-25T23:35:10.309Z,92.00
2019-03-25T23:37:38.710Z,92.10
2019-03-25T23:40:07.003Z,92.20
2019-03-25T23:42:35.780Z,91.80
2019-03-25T23:45:04.508Z,91.80
2019-03-25T23:47:32.940Z,92.00
2019-03-25T23:50:01.348Z,91.60
2019-03-25T23:52:29.839Z,92.10
2019-03-25T23:54:58.381Z,91.90
2019-03-25T23:57:26.746Z,91.90
2019-03-25T23:59:55.233Z,91.80
